Time;durP1;ratioP1;P1;durP2;ratioP2;P2;SDS_P1;SDS_P2;PMS_P1;PMS_P2;Temp;Humidity;BMP_temperature;BMP_pressure;BME280_temperature;BME280_humidity;BME280_pressure;Samples;Min_cycle;Max_cycle;Signal;HPM_P1;HPM_P2
2023/01/09 00:01:33;;;;;;;1.00;0.50;;;7.50;99.90;;;;;;5110171;28;20407;-82
2023/01/09 00:04:00;;;;;;;1.10;0.50;;;7.40;99.90;;;;;;5111650;28;20414;-82
2023/01/09 00:06:25;;;;;;;1.30;0.60;;;7.40;99.90;;;;;;5110230;28;20434;-83
2023/01/09 00:08:51;;;;;;;1.57;0.60;;;7.40;99.90;;;;;;5106850;28;20443;-82
2023/01/09 00:11:17;;;;;;;1.10;0.60;;;7.40;99.90;;;;;;5107364;28;20241;-82
2023/01/09 00:13:43;;;;;;;1.50;0.60;;;7.30;99.90;;;;;;5103262;28;20228;-82
2023/01/09 00:16:08;;;;;;;1.00;0.50;;;7.30;99.90;;;;;;5101571;28;20190;-80
2023/01/09 00:18:35;;;;;;;1.30;0.60;;;7.30;99.90;;;;;;5101664;28;20197;-82
2023/01/09 00:21:02;;;;;;;1.00;0.50;;;7.30;99.90;;;;;;5105734;28;20178;-79
2023/01/09 00:23:28;;;;;;;1.10;0.60;;;7.30;99.90;;;;;;5087730;28;20448;-80
2023/01/09 00:26:11;;;;;;;1.00;0.50;;;7.20;99.90;;;;;;5079638;28;20471;-82
2023/01/09 00:28:37;;;;;;;1.00;0.53;;;7.20;99.90;;;;;;5082749;28;20170;-80
2023/01/09 00:31:04;;;;;;;1.00;0.50;;;7.00;99.90;;;;;;5081029;28;20412;-80
2023/01/09 00:33:55;;;;;;;1.00;0.50;;;7.10;99.90;;;;;;5086320;28;20177;-80
2023/01/09 00:36:20;;;;;;;1.20;0.70;;;7.10;99.90;;;;;;5100581;28;20443;-78
2023/01/09 00:38:46;;;;;;;1.00;0.50;;;7.00;99.90;;;;;;5104271;28;20508;-81
2023/01/09 00:41:25;;;;;;;1.00;0.50;;;7.00;99.90;;;;;;5109413;28;20542;-81
2023/01/09 00:44:38;;;;;;;1.00;0.60;;;7.00;99.90;;;;;;5079685;28;20181;-82
2023/01/09 00:54:05;;;;;;;1.27;1.07;;;6.90;99.90;;;;;;5023187;28;20503;-79
2023/01/09 00:56:31;;;;;;;1.63;0.60;;;7.00;99.90;;;;;;5013680;28;20430;-79
2023/01/09 01:02:18;;;;;;;1.00;0.60;;;6.90;99.90;;;;;;5086727;28;20821;-79
2023/01/09 01:07:37;;;;;;;1.00;0.50;;;6.80;99.90;;;;;;5087303;28;20205;-79
2023/01/09 01:10:15;;;;;;;1.10;0.70;;;6.80;99.90;;;;;;5088948;28;20561;-79
2023/01/09 01:16:52;;;;;;;2.60;0.60;;;6.80;99.90;;;;;;5080869;28;20419;-83
2023/01/09 01:20:24;;;;;;;1.10;0.50;;;6.80;99.90;;;;;;5039196;28;20414;-83
2023/01/09 01:30:34;;;;;;;1.10;0.50;;;6.80;99.90;;;;;;4980112;28;20460;-83
2023/01/09 01:34:09;;;;;;;1.40;0.80;;;6.70;99.90;;;;;;5000033;28;20404;-83
2023/01/09 01:36:55;;;;;;;1.00;0.50;;;6.70;99.90;;;;;;4956039;28;20438;-80
2023/01/09 01:39:20;;;;;;;1.00;0.50;;;6.70;99.90;;;;;;5005371;28;20456;-80
2023/01/09 01:41:46;;;;;;;1.00;0.60;;;6.70;99.90;;;;;;5007753;28;20191;-80
2023/01/09 01:44:49;;;;;;;1.00;0.50;;;6.80;99.90;;;;;;5049241;28;20185;-80
2023/01/09 01:47:17;;;;;;;1.10;0.60;;;6.90;99.90;;;;;;5089178;28;20196;-80
2023/01/09 01:49:43;;;;;;;1.10;0.60;;;6.90;99.90;;;;;;5090457;28;20392;-80
2023/01/09 01:52:09;;;;;;;2.07;0.60;;;6.90;99.90;;;;;;5089913;28;20784;-80
2023/01/09 01:54:34;;;;;;;1.00;0.50;;;6.90;99.90;;;;;;5091211;28;20422;-80
2023/01/09 01:57:02;;;;;;;1.10;0.60;;;6.90;99.90;;;;;;5088795;28;20182;-80
2023/01/09 01:59:49;;;;;;;1.73;0.80;;;6.80;99.90;;;;;;5089560;28;20162;-81
2023/01/09 02:02:18;;;;;;;1.20;0.90;;;6.80;99.90;;;;;;5077800;28;20385;-82
2023/01/09 02:04:45;;;;;;;1.20;0.60;;;6.80;99.90;;;;;;5074009;28;20905;-82
2023/01/09 02:07:11;;;;;;;1.30;0.60;;;6.80;99.90;;;;;;5085659;28;20959;-83
2023/01/09 02:09:39;;;;;;;1.97;0.70;;;6.80;99.90;;;;;;5073834;28;20408;-82
2023/01/09 02:12:23;;;;;;;1.10;0.70;;;6.80;99.90;;;;;;5073556;28;20193;-82
2023/01/09 02:14:57;;;;;;;1.00;0.50;;;6.90;99.90;;;;;;5079992;28;20883;-82
2023/01/09 02:18:07;;;;;;;1.00;0.60;;;6.90;99.90;;;;;;5085310;28;20467;-82
2023/01/09 02:21:01;;;;;;;1.20;0.80;;;6.90;99.90;;;;;;5073519;28;20468;-82
2023/01/09 02:24:07;;;;;;;1.10;0.53;;;6.90;99.90;;;;;;5046113;28;20408;-81
2023/01/09 02:27:14;;;;;;;1.33;0.70;;;6.90;99.90;;;;;;5076656;28;20450;-82
2023/01/09 02:29:44;;;;;;;1.10;0.70;;;6.90;99.90;;;;;;5077409;28;20388;-80
2023/01/09 02:32:19;;;;;;;1.20;0.63;;;6.80;99.90;;;;;;5088997;28;20413;-79
2023/01/09 02:35:01;;;;;;;1.00;0.50;;;6.90;99.90;;;;;;5106073;28;20443;-80
2023/01/09 02:37:43;;;;;;;3.20;1.50;;;7.00;99.90;;;;;;5106047;28;20470;-80
2023/01/09 02:40:40;;;;;;;5.63;3.00;;;7.00;99.90;;;;;;5102289;28;20413;-80
2023/01/09 02:43:07;;;;;;;1.40;0.80;;;7.00;99.90;;;;;;5085392;28;20418;-80
2023/01/09 02:45:32;;;;;;;1.10;0.60;;;7.10;99.90;;;;;;5084353;28;20411;-80
2023/01/09 02:47:58;;;;;;;7.00;0.87;;;7.20;99.90;;;;;;5086515;28;20405;-80
2023/01/09 02:50:31;;;;;;;1.07;0.60;;;7.10;99.90;;;;;;5074993;28;20171;-81
2023/01/09 02:53:05;;;;;;;1.30;0.70;;;7.20;99.90;;;;;;5075798;28;20178;-80
2023/01/09 02:55:50;;;;;;;1.57;0.60;;;7.20;99.90;;;;;;5077092;28;20726;-82
2023/01/09 02:58:43;;;;;;;1.97;1.00;;;7.40;99.90;;;;;;5074955;28;20464;-81
2023/01/09 03:01:43;;;;;;;3.73;0.90;;;7.40;99.90;;;;;;5074676;28;20409;-79
2023/01/09 03:04:45;;;;;;;1.40;0.70;;;7.50;99.90;;;;;;5074562;28;20412;-79
2023/01/09 03:07:35;;;;;;;1.33;0.80;;;7.50;99.90;;;;;;5100595;28;20503;-78
2023/01/09 03:10:19;;;;;;;1.40;0.83;;;7.60;99.90;;;;;;5076892;28;20408;-79
2023/01/09 03:12:47;;;;;;;1.30;0.80;;;7.50;99.90;;;;;;5074144;28;20404;-80
2023/01/09 03:15:14;;;;;;;1.83;0.97;;;7.40;99.90;;;;;;5077920;28;20419;-80
2023/01/09 03:17:45;;;;;;;1.20;1.00;;;7.10;99.90;;;;;;5078082;28;21098;-80
2023/01/09 03:20:14;;;;;;;1.97;1.20;;;7.10;99.90;;;;;;5077777;28;20746;-80
2023/01/09 03:22:52;;;;;;;1.83;1.17;;;7.00;99.90;;;;;;5077477;28;20436;-83
2023/01/09 03:25:18;;;;;;;1.27;0.90;;;6.90;99.90;;;;;;5078828;28;20381;-81
2023/01/09 03:27:43;;;;;;;1.33;0.80;;;6.90;99.90;;;;;;5091044;28;20458;-78
2023/01/09 03:30:09;;;;;;;1.83;1.00;;;6.80;99.90;;;;;;5083121;28;20184;-78
2023/01/09 03:32:35;;;;;;;3.30;1.20;;;6.70;99.90;;;;;;5084430;28;20173;-78
2023/01/09 03:35:01;;;;;;;1.77;1.30;;;6.60;99.90;;;;;;5086428;28;20447;-79
2023/01/09 03:37:26;;;;;;;1.70;1.07;;;6.50;99.90;;;;;;5093986;28;20198;-80
2023/01/09 03:39:52;;;;;;;2.07;1.20;;;6.50;99.90;;;;;;5077686;28;20169;-80
2023/01/09 03:42:17;;;;;;;3.43;1.03;;;6.50;99.90;;;;;;5077578;28;20177;-80
2023/01/09 03:44:43;;;;;;;1.40;0.97;;;6.40;99.90;;;;;;5077545;28;20173;-80
2023/01/09 03:47:08;;;;;;;1.20;0.87;;;6.30;99.90;;;;;;5087884;28;20178;-80
2023/01/09 03:49:34;;;;;;;1.80;0.87;;;6.20;99.90;;;;;;5083822;28;20170;-80
2023/01/09 03:51:59;;;;;;;2.60;1.00;;;6.30;99.90;;;;;;5077426;28;20523;-80
2023/01/09 03:54:25;;;;;;;1.60;0.77;;;6.30;99.90;;;;;;5076925;28;20584;-79
2023/01/09 03:56:50;;;;;;;1.93;0.90;;;6.20;99.90;;;;;;5075654;28;20190;-78
2023/01/09 03:59:16;;;;;;;6.77;1.10;;;6.20;99.90;;;;;;5077034;28;20660;-79
2023/01/09 04:01:41;;;;;;;2.70;1.20;;;6.10;99.90;;;;;;5075628;28;20170;-80
2023/01/09 04:04:07;;;;;;;2.87;0.90;;;6.10;99.90;;;;;;5075237;28;20163;-78
2023/01/09 04:06:32;;;;;;;4.50;1.10;;;6.00;99.90;;;;;;5075110;28;20588;-79
2023/01/09 04:08:58;;;;;;;1.80;0.93;;;6.00;99.90;;;;;;5076549;28;20202;-80
2023/01/09 04:11:23;;;;;;;2.20;1.00;;;5.90;99.90;;;;;;5075058;28;20202;-79
2023/01/09 04:13:49;;;;;;;3.47;0.80;;;5.90;99.90;;;;;;5075091;28;20232;-80
2023/01/09 04:16:15;;;;;;;5.33;1.07;;;5.80;99.90;;;;;;5074777;28;20198;-79
2023/01/09 04:18:40;;;;;;;2.50;2.30;;;5.80;99.90;;;;;;5074501;28;20208;-79
2023/01/09 04:21:06;;;;;;;4.80;1.10;;;5.70;99.90;;;;;;5086985;28;20170;-81
2023/01/09 04:23:31;;;;;;;4.77;1.37;;;5.70;99.90;;;;;;5086382;28;20576;-80
2023/01/09 04:25:57;;;;;;;1.27;0.90;;;5.70;99.90;;;;;;5083893;28;20240;-79
2023/01/09 04:28:22;;;;;;;1.70;0.93;;;5.60;99.90;;;;;;5085320;28;20649;-80
2023/01/09 04:30:48;;;;;;;6.17;0.90;;;5.60;99.90;;;;;;5076273;28;20269;-78
2023/01/09 04:33:13;;;;;;;1.20;0.77;;;5.60;99.90;;;;;;5074500;28;20209;-79
2023/01/09 04:35:39;;;;;;;1.10;0.70;;;5.60;99.90;;;;;;5077591;28;20200;-79
2023/01/09 04:38:04;;;;;;;3.87;1.17;;;5.60;99.90;;;;;;5104757;28;20213;-79
2023/01/09 04:40:30;;;;;;;2.17;1.00;;;5.70;99.90;;;;;;5107761;28;20176;-80
2023/01/09 04:42:55;;;;;;;1.97;1.13;;;5.80;99.90;;;;;;5105377;28;20169;-80
2023/01/09 04:45:21;;;;;;;1.60;0.90;;;5.90;99.90;;;;;;5104841;28;20173;-78
2023/01/09 04:47:47;;;;;;;1.83;1.10;;;6.00;99.90;;;;;;5107207;28;20262;-80
2023/01/09 04:50:13;;;;;;;4.17;0.77;;;6.20;99.90;;;;;;5089070;28;20205;-79
2023/01/09 04:52:39;;;;;;;2.07;0.97;;;6.20;99.90;;;;;;5088329;28;20424;-80
2023/01/09 04:55:06;;;;;;;2.83;1.00;;;6.30;99.90;;;;;;5084764;28;20181;-80
2023/01/09 04:57:32;;;;;;;1.67;1.10;;;6.50;99.90;;;;;;5083870;28;20248;-79
2023/01/09 04:59:57;;;;;;;1.00;0.60;;;6.50;99.90;;;;;;5087629;28;20451;-79
2023/01/09 05:02:23;;;;;;;2.60;1.13;;;6.60;99.90;;;;;;5087740;28;20192;-79
2023/01/09 05:04:48;;;;;;;4.70;1.10;;;6.60;99.90;;;;;;5087784;28;20650;-79
2023/01/09 05:07:14;;;;;;;1.33;0.90;;;6.80;99.90;;;;;;5087473;28;20187;-79
2023/01/09 05:09:39;;;;;;;3.83;1.00;;;6.80;99.90;;;;;;5087191;28;20174;-79
2023/01/09 05:12:05;;;;;;;2.73;0.97;;;6.80;99.90;;;;;;5087095;28;20170;-81
2023/01/09 05:14:31;;;;;;;1.30;0.80;;;6.90;99.90;;;;;;5082839;28;20650;-78
2023/01/09 05:16:56;;;;;;;1.10;0.67;;;7.00;99.90;;;;;;5101180;28;20190;-78
2023/01/09 05:19:22;;;;;;;3.00;1.10;;;7.00;99.90;;;;;;5103722;28;20253;-81
2023/01/09 05:21:48;;;;;;;1.50;0.70;;;7.00;99.90;;;;;;5105526;28;20211;-80
2023/01/09 05:24:13;;;;;;;6.60;1.00;;;7.00;99.90;;;;;;5104032;28;20173;-79
2023/01/09 05:26:39;;;;;;;1.53;0.80;;;7.10;99.90;;;;;;5099947;28;20191;-80
2023/01/09 05:29:04;;;;;;;5.97;1.00;;;7.20;99.90;;;;;;5083863;28;20284;-81
2023/01/09 05:31:30;;;;;;;3.30;1.70;;;7.20;99.90;;;;;;5084792;28;20261;-82
2023/01/09 05:33:58;;;;;;;2.80;1.00;;;7.30;99.90;;;;;;5085813;28;20193;-80
2023/01/09 05:36:23;;;;;;;1.60;0.80;;;7.40;99.90;;;;;;5083150;28;20186;-79
2023/01/09 05:38:49;;;;;;;3.37;0.93;;;7.30;99.90;;;;;;5084446;28;20459;-79
2023/01/09 05:41:14;;;;;;;2.90;0.90;;;7.40;99.90;;;;;;5086014;28;20155;-79
2023/01/09 05:43:40;;;;;;;3.47;1.37;;;7.30;99.90;;;;;;5083827;28;20173;-80
2023/01/09 05:46:05;;;;;;;2.73;1.70;;;7.30;99.90;;;;;;5084403;28;20194;-79
2023/01/09 05:48:31;;;;;;;5.37;0.90;;;7.30;99.90;;;;;;5083291;28;20174;-80
2023/01/09 05:50:56;;;;;;;7.57;1.60;;;7.40;99.90;;;;;;5088066;28;20176;-80
2023/01/09 05:53:22;;;;;;;2.30;0.90;;;7.40;99.90;;;;;;5098107;28;20175;-81
2023/01/09 05:55:47;;;;;;;1.43;0.97;;;7.40;99.90;;;;;;5097039;28;20256;-81
2023/01/09 05:58:13;;;;;;;2.20;0.97;;;7.40;99.90;;;;;;5097465;28;20204;-81
2023/01/09 06:00:38;;;;;;;3.70;1.03;;;7.30;99.90;;;;;;5088511;28;20166;-81
2023/01/09 06:03:04;;;;;;;3.00;1.57;;;7.40;99.90;;;;;;5075496;28;20170;-80
2023/01/09 06:05:29;;;;;;;1.80;1.13;;;7.30;99.90;;;;;;5077908;28;20224;-81
2023/01/09 06:07:55;;;;;;;1.83;0.73;;;7.40;99.90;;;;;;5075277;28;20194;-81
2023/01/09 06:10:20;;;;;;;2.33;0.90;;;7.40;99.90;;;;;;5073896;28;20178;-79
2023/01/09 06:12:48;;;;;;;1.50;0.77;;;7.50;99.90;;;;;;5072799;28;20170;-80
2023/01/09 06:15:16;;;;;;;4.77;1.30;;;7.50;99.90;;;;;;5072988;28;20695;-79
2023/01/09 06:17:42;;;;;;;5.87;1.20;;;7.50;99.90;;;;;;5074060;28;20539;-81
2023/01/09 06:20:09;;;;;;;1.63;0.93;;;7.50;99.90;;;;;;5074231;28;20928;-79
2023/01/09 06:22:34;;;;;;;1.93;0.90;;;7.50;99.90;;;;;;5073811;28;20396;-79
2023/01/09 06:25:00;;;;;;;1.37;0.90;;;7.60;99.90;;;;;;5073863;28;20435;-80
2023/01/09 06:27:25;;;;;;;1.43;0.80;;;7.50;99.90;;;;;;5072912;28;20710;-78
2023/01/09 06:29:51;;;;;;;1.67;0.93;;;7.50;99.90;;;;;;5073644;28;20171;-79
2023/01/09 06:32:16;;;;;;;1.23;0.80;;;7.50;99.90;;;;;;5072665;28;20171;-80
2023/01/09 06:34:42;;;;;;;2.07;0.87;;;7.60;99.90;;;;;;5073595;28;20170;-78
2023/01/09 06:37:07;;;;;;;4.43;1.00;;;7.60;99.90;;;;;;5072566;28;20190;-79
2023/01/09 06:39:33;;;;;;;1.40;0.80;;;7.50;99.90;;;;;;5072516;28;20202;-81
2023/01/09 06:41:58;;;;;;;1.83;0.80;;;7.60;99.90;;;;;;5072503;28;20619;-79
2023/01/09 06:44:24;;;;;;;1.00;0.60;;;7.50;99.90;;;;;;5073571;28;20166;-80
2023/01/09 06:46:49;;;;;;;1.20;0.70;;;7.50;99.90;;;;;;5073143;28;20193;-81
2023/01/09 06:49:16;;;;;;;1.70;1.20;;;7.50;99.90;;;;;;5095331;28;20239;-79
2023/01/09 06:51:42;;;;;;;2.23;0.90;;;7.60;99.90;;;;;;5097880;28;20261;-78
2023/01/09 06:54:07;;;;;;;6.53;0.80;;;7.60;99.90;;;;;;5088738;28;20456;-79
2023/01/09 06:56:33;;;;;;;1.60;1.10;;;7.60;99.90;;;;;;5076855;28;20205;-79
2023/01/09 06:59:00;;;;;;;1.30;0.77;;;7.60;99.90;;;;;;5076536;28;20235;-80
2023/01/09 07:01:25;;;;;;;1.60;0.70;;;7.70;99.90;;;;;;5076918;28;20181;-79
2023/01/09 07:03:51;;;;;;;1.50;0.70;;;7.70;99.90;;;;;;5077708;28;20417;-80
2023/01/09 07:06:17;;;;;;;1.37;0.80;;;7.70;99.90;;;;;;5077961;28;20547;-80
2023/01/09 07:08:42;;;;;;;3.10;0.90;;;7.70;99.90;;;;;;5077350;28;20186;-80
2023/01/09 07:11:08;;;;;;;1.40;0.80;;;7.70;99.90;;;;;;5078223;28;20415;-79
2023/01/09 07:13:34;;;;;;;1.20;0.70;;;7.70;99.90;;;;;;5076798;28;20548;-80
2023/01/09 07:16:01;;;;;;;2.13;1.23;;;7.80;99.90;;;;;;5076211;28;20323;-82
2023/01/09 07:18:27;;;;;;;7.53;1.20;;;7.90;99.90;;;;;;5076439;28;20198;-79
2023/01/09 07:20:53;;;;;;;5.50;1.30;;;7.90;99.90;;;;;;5076309;28;21071;-79
2023/01/09 07:23:18;;;;;;;5.03;1.27;;;7.90;99.90;;;;;;5076693;28;20173;-80
2023/01/09 07:25:44;;;;;;;2.70;1.20;;;7.90;99.90;;;;;;5076094;28;20181;-81
2023/01/09 07:28:10;;;;;;;3.53;1.07;;;7.90;99.90;;;;;;5077349;28;20178;-79
2023/01/09 07:30:35;;;;;;;1.43;0.97;;;7.90;99.90;;;;;;5075575;28;20189;-79
2023/01/09 07:33:01;;;;;;;2.03;0.90;;;7.90;99.90;;;;;;5075110;28;20420;-78
2023/01/09 07:35:27;;;;;;;1.93;1.40;;;7.90;99.90;;;;;;5074994;28;20628;-79
2023/01/09 07:37:52;;;;;;;1.80;0.93;;;7.90;99.90;;;;;;5076261;28;20221;-78
2023/01/09 07:40:18;;;;;;;2.50;0.97;;;7.90;99.90;;;;;;5075787;28;20223;-78
2023/01/09 07:42:43;;;;;;;1.63;0.70;;;7.80;99.90;;;;;;5077219;28;20169;-81
2023/01/09 07:45:09;;;;;;;1.20;0.70;;;8.00;99.90;;;;;;5076577;28;20533;-78
2023/01/09 07:47:35;;;;;;;2.37;0.87;;;8.00;99.90;;;;;;5075137;28;20192;-80
2023/01/09 07:50:00;;;;;;;1.63;0.73;;;8.00;99.90;;;;;;5075070;28;20495;-80
2023/01/09 07:52:26;;;;;;;2.83;0.70;;;8.00;99.90;;;;;;5075147;28;20202;-79
2023/01/09 07:54:52;;;;;;;1.60;0.80;;;7.90;99.90;;;;;;5074487;28;20166;-79
2023/01/09 07:57:18;;;;;;;1.80;1.00;;;8.00;99.90;;;;;;5074616;28;20420;-79
2023/01/09 07:59:43;;;;;;;2.27;0.83;;;8.00;99.90;;;;;;5073170;28;20431;-80
2023/01/09 08:02:09;;;;;;;1.80;1.00;;;8.00;99.90;;;;;;5074882;28;20508;-80
2023/01/09 08:04:34;;;;;;;2.80;1.00;;;8.10;99.90;;;;;;5074057;28;20220;-80
2023/01/09 08:07:02;;;;;;;4.63;0.80;;;8.10;99.90;;;;;;5075697;28;20182;-79
2023/01/09 08:09:27;;;;;;;2.30;1.43;;;8.10;99.90;;;;;;5076291;28;20173;-82
2023/01/09 08:11:53;;;;;;;4.30;1.30;;;8.10;99.90;;;;;;5074732;28;20405;-79
2023/01/09 08:14:18;;;;;;;1.30;1.13;;;8.20;99.90;;;;;;5074713;28;20172;-81
2023/01/09 08:16:44;;;;;;;1.87;0.80;;;8.20;99.90;;;;;;5076342;28;20190;-78
2023/01/09 08:19:10;;;;;;;3.43;2.00;;;8.20;99.90;;;;;;5075899;28;20255;-79
2023/01/09 08:21:37;;;;;;;1.40;0.77;;;8.20;99.90;;;;;;5075091;28;20171;-80
2023/01/09 08:24:03;;;;;;;4.27;1.30;;;8.10;99.90;;;;;;5075213;28;20417;-80
2023/01/09 08:26:29;;;;;;;1.10;0.70;;;8.10;99.90;;;;;;5076453;28;20447;-79
2023/01/09 08:28:54;;;;;;;7.83;1.30;;;8.10;99.90;;;;;;5076504;28;20408;-79
2023/01/09 08:31:20;;;;;;;1.40;0.83;;;8.20;99.90;;;;;;5075193;28;20178;-80
2023/01/09 08:33:45;;;;;;;1.37;0.70;;;8.20;99.90;;;;;;5074958;28;20549;-80
2023/01/09 08:36:11;;;;;;;2.03;1.63;;;8.20;99.90;;;;;;5074709;28;20259;-79
2023/01/09 08:38:36;;;;;;;3.73;0.90;;;8.20;99.90;;;;;;5093582;28;20201;-80
2023/01/09 08:47:04;;;;;;;2.27;0.83;;;8.10;99.90;;;;;;5095655;28;20581;-80
2023/01/09 08:49:18;;;;;;;2.90;0.83;;;8.30;99.90;;;;;;5089992;28;20431;-79
2023/01/09 08:51:44;;;;;;;2.10;0.83;;;8.20;99.90;;;;;;5073678;28;20417;-79
2023/01/09 08:54:09;;;;;;;1.70;0.90;;;8.20;99.90;;;;;;5073329;28;20579;-78
2023/01/09 08:56:35;;;;;;;1.73;0.70;;;8.30;99.90;;;;;;5074414;28;20694;-78
2023/01/09 08:59:00;;;;;;;2.23;1.10;;;8.20;99.90;;;;;;5074475;28;20257;-78
2023/01/09 09:01:26;;;;;;;1.50;0.90;;;8.30;99.90;;;;;;5074504;28;20166;-75
2023/01/09 09:03:52;;;;;;;4.37;1.03;;;8.30;99.90;;;;;;5075451;28;20169;-78
2023/01/09 09:06:17;;;;;;;3.03;1.17;;;8.30;99.90;;;;;;5074397;28;20263;-78
2023/01/09 09:08:43;;;;;;;2.13;0.80;;;8.40;99.90;;;;;;5073473;28;20401;-74
2023/01/09 09:11:08;;;;;;;3.50;1.30;;;8.30;99.90;;;;;;5074213;28;20166;-75
2023/01/09 09:13:34;;;;;;;5.33;1.50;;;8.40;99.90;;;;;;5087301;28;20177;-78
2023/01/09 09:16:00;;;;;;;3.87;1.47;;;8.40;99.90;;;;;;5094682;28;20212;-77
2023/01/09 09:18:25;;;;;;;6.40;1.47;;;8.50;99.90;;;;;;5095577;28;20219;-78
2023/01/09 09:20:51;;;;;;;2.80;1.07;;;8.50;99.90;;;;;;5094037;28;20162;-77
2023/01/09 09:23:16;;;;;;;1.43;0.90;;;8.50;99.90;;;;;;5093748;28;20854;-77
2023/01/09 09:25:42;;;;;;;5.87;1.73;;;8.50;99.90;;;;;;5091187;28;20171;-77
2023/01/09 09:28:08;;;;;;;1.43;0.80;;;8.40;99.90;;;;;;5094361;28;20236;-77
2023/01/09 09:30:34;;;;;;;1.00;0.60;;;8.50;99.90;;;;;;5094311;28;20469;-78
2023/01/09 09:33:03;;;;;;;3.10;0.80;;;8.40;99.90;;;;;;5093622;28;20415;-78
2023/01/09 09:35:29;;;;;;;2.50;0.80;;;8.40;99.90;;;;;;5081587;28;20206;-77
2023/01/09 09:37:58;;;;;;;1.70;0.80;;;8.50;99.90;;;;;;5072716;28;20496;-76
2023/01/09 09:40:49;;;;;;;1.70;1.20;;;8.60;99.90;;;;;;5072787;28;20405;-76
2023/01/09 09:46:55;;;;;;;2.03;0.70;;;8.70;99.90;;;;;;5076096;28;20415;-76
2023/01/09 09:49:27;;;;;;;1.40;0.90;;;8.80;99.90;;;;;;5093612;28;20427;-76
2023/01/09 09:51:53;;;;;;;2.60;0.60;;;8.90;99.90;;;;;;5094186;28;20407;-76
2023/01/09 09:54:38;;;;;;;2.23;0.80;;;9.00;99.90;;;;;;5093539;28;20404;-76
2023/01/09 09:57:10;;;;;;;1.87;1.17;;;9.10;99.90;;;;;;5093007;28;20197;-76
2023/01/09 09:59:39;;;;;;;2.00;0.90;;;9.10;99.90;;;;;;5080505;28;20509;-76
2023/01/09 10:02:31;;;;;;;1.00;0.50;;;9.10;99.90;;;;;;5073321;28;20417;-76
2023/01/09 10:05:17;;;;;;;2.03;0.77;;;9.20;99.90;;;;;;5072287;28;20921;-76
2023/01/09 10:07:48;;;;;;;2.60;0.90;;;9.30;99.90;;;;;;5072474;28;20861;-76
2023/01/09 10:10:21;;;;;;;1.50;0.80;;;9.40;99.90;;;;;;5072645;28;20407;-76
2023/01/09 10:12:55;;;;;;;2.33;0.80;;;9.50;99.90;;;;;;5072595;28;20492;-76
2023/01/09 10:15:38;;;;;;;2.33;1.07;;;9.60;99.90;;;;;;5070713;28;20411;-76
2023/01/09 10:18:11;;;;;;;3.10;0.83;;;9.60;99.90;;;;;;5072503;28;20869;-76
2023/01/09 10:20:53;;;;;;;1.63;0.87;;;9.60;99.90;;;;;;5071307;28;20428;-76
2023/01/09 10:23:38;;;;;;;3.13;0.97;;;9.80;99.90;;;;;;5070738;28;20442;-76
2023/01/09 10:26:20;;;;;;;2.00;1.10;;;9.80;99.90;;;;;;5072161;28;20464;-76
2023/01/09 10:29:07;;;;;;;1.20;0.80;;;10.10;99.90;;;;;;5073017;28;20389;-76
2023/01/09 10:31:53;;;;;;;1.43;0.80;;;10.10;99.90;;;;;;5073109;28;20407;-75
2023/01/09 10:35:05;;;;;;;2.00;0.80;;;9.90;99.90;;;;;;5073341;28;20490;-76
2023/01/09 10:37:43;;;;;;;1.77;0.80;;;10.00;99.90;;;;;;5069254;28;20456;-76
2023/01/09 10:40:19;;;;;;;1.10;0.60;;;10.00;99.90;;;;;;5072788;28;20439;-76
2023/01/09 10:43:01;;;;;;;3.00;0.80;;;10.00;99.90;;;;;;5071703;28;20408;-76
2023/01/09 10:45:53;;;;;;;1.47;0.80;;;9.90;99.90;;;;;;5073459;28;20396;-76
2023/01/09 10:48:26;;;;;;;1.73;0.70;;;9.90;99.90;;;;;;5077081;28;20415;-76
2023/01/09 10:50:55;;;;;;;1.83;0.70;;;10.00;99.90;;;;;;5094611;28;20495;-76
2023/01/09 10:53:30;;;;;;;1.83;0.70;;;10.20;99.90;;;;;;5093741;28;20453;-76
2023/01/09 10:56:19;;;;;;;1.70;1.00;;;10.40;99.90;;;;;;5093218;28;20955;-75
2023/01/09 10:58:45;;;;;;;2.10;0.80;;;10.20;99.90;;;;;;5093235;28;20446;-75
2023/01/09 11:01:11;;;;;;;2.73;1.00;;;10.30;99.90;;;;;;5092105;28;20912;-75
2023/01/09 11:03:37;;;;;;;1.40;0.93;;;10.40;99.90;;;;;;5092550;28;20407;-76
2023/01/09 11:06:13;;;;;;;1.87;0.97;;;10.40;99.90;;;;;;5093378;28;20188;-75
2023/01/09 11:08:41;;;;;;;1.10;0.83;;;10.40;99.90;;;;;;5093721;28;20466;-76
2023/01/09 11:11:08;;;;;;;1.63;0.80;;;10.30;99.90;;;;;;5091312;28;20403;-76
2023/01/09 11:13:37;;;;;;;1.10;0.70;;;10.00;99.90;;;;;;5105534;28;20978;-75
2023/01/09 11:16:06;;;;;;;2.37;1.00;;;9.90;99.90;;;;;;5072093;28;20432;-76
2023/01/09 11:18:34;;;;;;;1.63;0.70;;;9.90;99.90;;;;;;5105028;28;20448;-76
2023/01/09 11:21:32;;;;;;;2.27;0.70;;;9.90;99.90;;;;;;5086784;28;20424;-76
2023/01/09 11:24:17;;;;;;;2.57;0.90;;;9.80;99.90;;;;;;5093060;28;20400;-76
2023/01/09 11:26:42;;;;;;;2.23;0.93;;;10.00;99.90;;;;;;5072444;28;20504;-76
2023/01/09 11:29:13;;;;;;;1.63;0.70;;;10.00;99.90;;;;;;5072082;28;20447;-76
2023/01/09 11:31:41;;;;;;;1.27;0.77;;;10.00;99.90;;;;;;5072286;28;20166;-76
2023/01/09 11:34:19;;;;;;;3.40;0.80;;;10.10;99.90;;;;;;5072940;28;20408;-76
2023/01/09 11:36:45;;;;;;;1.40;0.80;;;10.10;99.90;;;;;;5075982;28;20443;-76
2023/01/09 11:39:24;;;;;;;4.40;0.90;;;10.20;99.90;;;;;;5076118;28;20464;-76
2023/01/09 11:42:05;;;;;;;1.93;0.90;;;10.00;99.90;;;;;;5075922;28;20400;-77
2023/01/09 11:44:31;;;;;;;1.20;0.77;;;10.00;99.90;;;;;;5075271;28;20404;-76
2023/01/09 11:46:57;;;;;;;1.30;0.60;;;10.00;99.90;;;;;;5109537;28;20436;-76
2023/01/09 11:49:29;;;;;;;1.30;0.70;;;9.80;99.90;;;;;;5080450;28;20485;-76
2023/01/09 11:52:15;;;;;;;1.83;0.73;;;9.70;99.90;;;;;;5075586;28;20396;-76
2023/01/09 11:54:55;;;;;;;1.30;0.80;;;9.80;99.90;;;;;;5075522;28;20807;-76
2023/01/09 11:57:22;;;;;;;1.13;0.70;;;9.60;99.90;;;;;;5073815;28;20463;-76
2023/01/09 11:59:48;;;;;;;2.87;0.73;;;9.60;99.90;;;;;;5075049;28;20983;-76
2023/01/09 12:02:38;;;;;;;1.33;0.60;;;9.60;99.90;;;;;;5075860;28;20455;-76
2023/01/09 12:05:20;;;;;;;2.50;1.03;;;9.70;99.90;;;;;;5075180;28;20179;-76
2023/01/09 12:07:51;;;;;;;1.20;0.70;;;9.70;99.90;;;;;;5075458;28;20419;-76
2023/01/09 12:10:46;;;;;;;1.40;0.80;;;9.90;99.90;;;;;;5075165;28;20397;-76
2023/01/09 12:13:30;;;;;;;2.03;0.83;;;9.90;99.90;;;;;;5093853;28;20454;-76
2023/01/09 12:16:25;;;;;;;1.50;0.90;;;9.90;99.90;;;;;;5095430;28;20427;-76
2023/01/09 12:18:56;;;;;;;1.40;0.90;;;10.10;99.90;;;;;;5095477;28;20439;-76
2023/01/09 12:21:25;;;;;;;1.30;0.70;;;10.20;99.90;;;;;;5094757;28;20396;-76
2023/01/09 12:24:08;;;;;;;1.10;0.67;;;10.20;99.90;;;;;;5084484;28;20421;-76
2023/01/09 12:27:11;;;;;;;1.23;0.73;;;10.00;99.90;;;;;;5074465;28;20420;-75
2023/01/09 12:29:55;;;;;;;4.17;0.80;;;9.80;99.90;;;;;;5073433;28;20445;-75
2023/01/09 12:32:42;;;;;;;1.20;0.70;;;9.80;99.90;;;;;;5073501;28;20450;-75
2023/01/09 12:35:34;;;;;;;2.30;0.80;;;9.90;99.90;;;;;;5080503;28;20419;-76
2023/01/09 12:38:24;;;;;;;2.27;0.77;;;9.80;99.90;;;;;;5098059;28;20482;-77
2023/01/09 12:41:14;;;;;;;2.90;0.70;;;9.90;99.90;;;;;;5097032;28;20404;-75
2023/01/09 12:44:29;;;;;;;3.00;0.90;;;10.00;99.90;;;;;;5094103;28;20404;-75
2023/01/09 12:47:15;;;;;;;1.10;0.70;;;10.30;99.90;;;;;;5076211;28;20440;-75
2023/01/09 12:50:13;;;;;;;1.30;0.80;;;10.40;99.90;;;;;;5073786;28;20396;-75
2023/01/09 12:52:43;;;;;;;1.40;0.70;;;10.50;99.90;;;;;;5072451;28;20412;-75
2023/01/09 12:55:33;;;;;;;1.53;0.83;;;10.50;99.90;;;;;;5073474;28;20735;-75
2023/01/09 12:58:06;;;;;;;1.20;0.70;;;10.70;99.90;;;;;;5073601;28;20452;-75
2023/01/09 13:00:42;;;;;;;1.37;0.90;;;10.80;99.90;;;;;;5098697;28;20423;-75
2023/01/09 13:03:17;;;;;;;1.67;0.80;;;10.80;99.90;;;;;;5101366;28;20421;-76
2023/01/09 13:05:49;;;;;;;1.30;0.80;;;10.60;99.90;;;;;;5101208;28;20435;-77
2023/01/09 13:08:48;;;;;;;2.53;1.00;;;10.70;99.90;;;;;;5093628;28;20392;-75
2023/01/09 13:11:24;;;;;;;2.17;1.20;;;11.10;99.90;;;;;;5086328;28;20447;-75
2023/01/09 13:13:58;;;;;;;3.83;0.83;;;11.00;99.90;;;;;;5073981;28;20490;-76
2023/01/09 13:16:32;;;;;;;1.10;0.70;;;11.00;99.90;;;;;;5073431;28;20451;-75
2023/01/09 13:19:19;;;;;;;1.20;0.80;;;11.00;99.90;;;;;;5074228;28;20514;-75
2023/01/09 13:21:45;;;;;;;2.87;1.30;;;10.90;99.90;;;;;;5073110;28;20432;-75
2023/01/09 13:24:30;;;;;;;1.63;1.10;;;10.80;99.90;;;;;;5090161;28;20805;-75
2023/01/09 13:27:02;;;;;;;4.10;1.70;;;10.50;99.90;;;;;;5093204;28;20488;-75
2023/01/09 13:29:39;;;;;;;1.53;1.10;;;10.50;99.90;;;;;;5091913;28;20438;-75
2023/01/09 13:32:31;;;;;;;3.00;1.30;;;10.50;99.90;;;;;;5093173;28;20604;-75
2023/01/09 13:34:57;;;;;;;2.53;1.30;;;10.80;99.90;;;;;;5083356;28;20428;-76
2023/01/09 13:37:34;;;;;;;1.83;1.30;;;10.90;99.90;;;;;;5072614;28;20439;-76
2023/01/09 13:40:25;;;;;;;1.50;0.90;;;10.80;99.90;;;;;;5072938;28;20405;-77
2023/01/09 13:43:09;;;;;;;4.37;1.30;;;10.80;99.90;;;;;;5072240;28;20447;-75
2023/01/09 13:45:36;;;;;;;1.60;1.10;;;10.70;99.90;;;;;;5072276;28;20959;-75
2023/01/09 13:48:10;;;;;;;1.63;0.90;;;10.50;99.90;;;;;;5089062;28;20419;-75
2023/01/09 13:50:41;;;;;;;2.13;1.40;;;10.20;99.90;;;;;;5091613;28;20467;-75
2023/01/09 13:53:18;;;;;;;2.37;1.40;;;10.00;99.90;;;;;;5093361;28;20408;-75
2023/01/09 13:55:56;;;;;;;2.07;1.33;;;9.90;99.90;;;;;;5092698;28;20932;-75